Time;durP1;ratioP1;P1;durP2;ratioP2;P2;SDS_P1;SDS_P2;PMS_P1;PMS_P2;Temp;Humidity;BMP_temperature;BMP_pressure;BME280_temperature;BME280_humidity;BME280_pressure;Samples;Min_cycle;Max_cycle;Signal;HPM_P1;HPM_P2
2023/09/18 16:14:32;;;;;;;8.03;4.60;;;;;;;24.60;43.87;97318.59;5046236;28;20683;-80
2023/09/18 16:17:52;;;;;;;7.50;4.40;;;;;;;24.70;43.70;97329.94;5029267;28;20274;-80
2023/09/18 16:20:53;;;;;;;8.90;4.23;;;;;;;24.78;44.21;97327.41;5046791;28;20291;-80
2023/09/18 16:23:20;;;;;;;8.37;4.37;;;;;;;24.78;43.94;97317.66;5031069;28;20213;-80
2023/09/18 16:25:49;;;;;;;5.60;4.40;;;;;;;24.90;44.53;97320.91;5043215;28;20707;-81
2023/09/18 16:28:17;;;;;;;4.00;3.27;;;;;;;24.70;44.02;97287.56;5048252;28;20253;-79
2023/09/18 16:30:46;;;;;;;7.63;4.07;;;;;;;24.73;44.48;97303.16;5048020;28;20194;-82
2023/09/18 16:33:15;;;;;;;6.53;3.57;;;;;;;24.82;45.06;97334.06;5028349;28;20197;-79
2023/09/18 16:35:49;;;;;;;5.80;3.40;;;;;;;24.52;44.73;97315.84;5018060;28;20702;-81
2023/09/18 16:38:18;;;;;;;5.23;3.97;;;;;;;24.41;45.67;97350.47;5043989;28;20235;-81
2023/09/18 16:40:47;;;;;;;8.33;4.43;;;;;;;24.26;46.02;97336.91;5024206;28;20261;-80
2023/09/18 16:43:14;;;;;;;9.77;5.17;;;;;;;24.08;46.08;97334.22;5036408;28;20222;-81
2023/09/18 16:45:43;;;;;;;20.47;5.50;;;;;;;24.20;45.97;97354.22;5029731;28;20311;-81
2023/09/18 16:48:11;;;;;;;10.20;5.37;;;;;;;23.90;46.90;97329.81;5029827;28;20212;-81
2023/09/18 16:50:39;;;;;;;8.37;4.80;;;;;;;23.98;46.75;97349.28;5035082;28;20220;-81
2023/09/18 16:53:06;;;;;;;8.07;4.90;;;;;;;23.97;46.51;97329.06;5017132;28;20263;-81
2023/09/18 16:55:33;;;;;;;8.97;4.80;;;;;;;23.98;46.29;97356.38;5009913;28;20224;-81
2023/09/18 16:58:01;;;;;;;8.43;4.27;;;;;;;23.76;47.20;97339.03;4994828;28;20232;-81
2023/09/18 17:00:28;;;;;;;5.97;4.13;;;;;;;23.79;47.41;97349.34;5017808;28;20202;-79
2023/09/18 17:02:56;;;;;;;11.57;5.07;;;;;;;23.97;46.50;97360.81;4992754;28;20320;-81
2023/09/18 17:05:24;;;;;;;7.83;4.47;;;;;;;23.80;47.96;97366.03;5028042;28;20286;-82
2023/09/18 17:07:52;;;;;;;11.70;5.07;;;;;;;23.57;48.18;97352.31;5009411;28;20202;-82
2023/09/18 17:10:19;;;;;;;9.20;4.90;;;;;;;23.56;49.04;97382.38;5029542;28;20201;-82
2023/09/18 17:12:47;;;;;;;7.50;4.67;;;;;;;23.57;49.11;97376.13;5037433;28;20268;-81
2023/09/18 17:15:17;;;;;;;7.20;4.47;;;;;;;23.72;48.62;97384.44;5030079;28;20708;-80
2023/09/18 17:17:58;;;;;;;7.00;4.27;;;;;;;23.38;49.20;97366.41;5029015;28;20653;-81
2023/09/18 17:20:29;;;;;;;8.00;4.00;;;;;;;23.51;49.09;97375.84;5047035;28;20743;-82
2023/09/18 17:22:57;;;;;;;9.00;4.53;;;;;;;23.28;49.98;97375.28;5029475;28;20207;-81
2023/09/18 17:25:25;;;;;;;8.20;4.37;;;;;;;23.25;50.34;97367.63;5029054;28;20218;-81
2023/09/18 17:27:56;;;;;;;7.17;4.43;;;;;;;23.26;50.97;97382.53;5046020;28;20219;-81
2023/09/18 17:30:24;;;;;;;9.23;4.60;;;;;;;23.11;52.16;97402.41;5047068;28;20227;-81
2023/09/18 17:32:51;;;;;;;8.60;3.97;;;;;;;23.03;52.77;97403.09;5046755;28;20212;-80
2023/09/18 17:35:18;;;;;;;9.13;4.20;;;;;;;22.99;53.06;97388.50;5028739;28;20202;-82
2023/09/18 17:37:46;;;;;;;6.13;3.93;;;;;;;23.01;53.37;97406.84;5028488;28;20244;-80
2023/09/18 17:40:14;;;;;;;7.60;3.80;;;;;;;22.46;54.29;97380.00;5029276;28;20207;-80
2023/09/18 17:42:42;;;;;;;7.93;3.60;;;;;;;22.77;54.43;97414.31;5028612;28;20201;-80
2023/09/18 17:45:11;;;;;;;5.50;3.90;;;;;;;22.58;55.34;97402.75;5047474;28;20196;-80
2023/09/18 17:47:38;;;;;;;6.30;3.97;;;;;;;22.60;55.48;97416.66;5074054;28;20207;-80
2023/09/18 17:50:06;;;;;;;5.07;3.83;;;;;;;22.40;56.33;97392.94;5085376;28;20713;-81
2023/09/18 17:52:33;;;;;;;7.47;3.90;;;;;;;22.44;56.50;97400.44;5086713;28;20199;-80
2023/09/18 17:55:04;;;;;;;4.83;3.27;;;;;;;22.64;56.36;97422.50;5086719;28;20209;-80
2023/09/18 17:57:35;;;;;;;5.37;3.47;;;;;;;22.60;56.74;97421.94;5068982;28;20226;-80
2023/09/18 18:00:11;;;;;;;5.73;3.70;;;;;;;22.27;57.81;97429.28;5086666;28;20194;-79
2023/09/18 18:02:39;;;;;;;7.17;4.03;;;;;;;21.91;59.35;97435.06;5070195;28;20280;-79
2023/09/18 18:05:07;;;;;;;7.47;5.07;;;;;;;22.15;58.87;97431.19;5068589;28;20233;-79
2023/09/18 18:07:35;;;;;;;9.43;4.40;;;;;;;21.98;59.14;97415.09;5051662;28;20200;-80
2023/09/18 18:10:04;;;;;;;8.17;4.70;;;;;;;21.99;59.27;97407.06;5068924;28;20199;-80
2023/09/18 18:12:33;;;;;;;12.03;5.40;;;;;;;22.01;59.52;97414.84;5068341;28;20755;-79
2023/09/18 18:15:01;;;;;;;10.03;6.33;;;;;;;21.88;60.53;97435.31;5053717;28;20287;-80
2023/09/18 18:17:29;;;;;;;12.07;7.73;;;;;;;22.02;59.81;97429.69;5055902;28;20232;-79
2023/09/18 18:19:57;;;;;;;15.70;9.97;;;;;;;22.18;59.95;97444.09;5072981;28;20199;-80
2023/09/18 18:22:24;;;;;;;14.00;9.93;;;;;;;22.07;60.27;97441.53;5072538;28;20827;-80
2023/09/18 18:24:52;;;;;;;16.83;10.83;;;;;;;21.94;60.84;97442.72;5072752;28;20616;-80
2023/09/18 18:27:20;;;;;;;17.73;11.17;;;;;;;22.13;60.49;97441.03;5089174;28;20322;-80
2023/09/18 18:29:48;;;;;;;17.83;12.17;;;;;;;21.76;61.48;97442.44;5072033;28;20198;-80
2023/09/18 18:32:25;;;;;;;14.37;10.20;;;;;;;21.86;61.13;97440.72;5090758;28;20189;-80
2023/09/18 18:34:52;;;;;;;9.20;7.87;;;;;;;21.73;61.70;97443.53;5055812;28;20240;-80
2023/09/18 18:37:20;;;;;;;9.37;6.63;;;;;;;21.56;62.62;97454.63;5055680;28;20221;-80
2023/09/18 18:39:47;;;;;;;9.37;6.10;;;;;;;21.67;61.99;97430.88;5089088;28;20206;-79
2023/09/18 18:42:15;;;;;;;9.70;6.07;;;;;;;21.86;61.73;97457.38;5090169;28;20708;-80
2023/09/18 18:44:42;;;;;;;10.13;5.37;;;;;;;21.68;62.60;97463.31;5090383;28;20198;-80
2023/09/18 18:47:09;;;;;;;13.07;4.50;;;;;;;21.80;62.25;97472.88;5090095;28;20826;-80
2023/09/18 18:49:37;;;;;;;6.30;4.67;;;;;;;21.63;62.80;97460.25;5072710;28;20195;-81
2023/09/18 18:52:05;;;;;;;5.47;3.90;;;;;;;21.59;63.01;97464.09;5054893;28;20275;-79
2023/09/18 18:54:32;;;;;;;7.37;4.03;;;;;;;21.87;62.25;97476.66;5072469;28;20194;-78
2023/09/18 18:57:01;;;;;;;10.30;4.03;;;;;;;21.94;62.17;97480.47;5072495;28;20197;-82
2023/09/18 18:59:28;;;;;;;9.07;4.80;;;;;;;21.85;62.44;97481.25;5031065;28;20286;-80
2023/09/18 19:01:56;;;;;;;5.90;4.33;;;;;;;21.88;61.90;97486.28;5066166;28;20206;-79
2023/09/18 19:04:24;;;;;;;7.57;4.53;;;;;;;21.93;61.89;97489.34;5068722;28;20222;-85
2023/09/18 19:06:52;;;;;;;8.17;4.73;;;;;;;21.88;61.86;97479.16;5069536;28;20203;-81
2023/09/18 19:09:19;;;;;;;7.60;4.00;;;;;;;21.73;62.30;97492.78;5052297;28;20203;-80
2023/09/18 19:11:46;;;;;;;5.73;3.83;;;;;;;21.74;62.31;97478.66;5052461;28;20317;-80
2023/09/18 19:14:13;;;;;;;5.50;3.57;;;;;;;21.95;61.57;97486.59;5069976;28;20632;-81
2023/09/18 19:18:25;;;;;;;7.13;3.90;;;;;;;21.88;61.74;97471.25;5059764;27;20575;-81
2023/09/18 19:20:54;;;;;;;5.90;3.90;;;;;;;21.94;61.18;97474.34;5058316;28;20250;-80
2023/09/18 19:23:21;;;;;;;7.30;4.43;;;;;;;22.00;61.75;97485.25;5067312;28;20203;-78
2023/09/18 19:25:56;;;;;;;7.13;3.60;;;;;;;22.13;61.15;97491.16;5052645;28;20215;-81
2023/09/18 19:28:23;;;;;;;8.57;3.90;;;;;;;22.29;60.35;97488.88;5045885;28;20213;-82
2023/09/18 19:30:55;;;;;;;9.87;3.57;;;;;;;22.38;60.13;97497.81;5044846;28;20348;-78
2023/09/18 19:33:24;;;;;;;6.33;4.10;;;;;;;22.39;59.73;97476.56;5058615;28;20200;-78
2023/09/18 19:35:51;;;;;;;7.67;3.83;;;;;;;22.43;59.83;97512.28;5064588;28;20201;-78
2023/09/18 19:38:18;;;;;;;12.10;4.00;;;;;;;22.28;60.38;97516.22;5055013;28;20230;-78
2023/09/18 19:40:48;;;;;;;12.73;5.17;;;;;;;22.22;61.08;97510.63;5053494;28;20715;-83
2023/09/18 19:43:15;;;;;;;6.43;3.70;;;;;;;21.91;61.90;97512.38;5066077;28;20751;-78
2023/09/18 19:45:43;;;;;;;6.00;3.63;;;;;;;21.62;62.68;97509.50;5064630;28;20522;-80
2023/09/18 19:48:10;;;;;;;4.83;3.63;;;;;;;21.41;62.98;97500.69;5064259;28;20195;-80
2023/09/18 19:50:37;;;;;;;8.87;3.20;;;;;;;21.58;62.84;97517.78;5064590;28;20199;-79
2023/09/18 19:53:04;;;;;;;5.10;3.70;;;;;;;21.52;62.67;97511.22;5065690;28;20203;-79
2023/09/18 19:55:32;;;;;;;4.07;3.23;;;;;;;21.47;62.95;97516.03;5065206;28;20198;-79
2023/09/18 19:58:00;;;;;;;5.00;3.67;;;;;;;21.55;62.99;97510.13;5064449;28;20235;-80
2023/09/18 20:00:28;;;;;;;3.93;2.90;;;;;;;21.51;62.85;97503.44;5065435;28;20238;-80
2023/09/18 20:02:55;;;;;;;6.27;3.73;;;;;;;21.32;62.89;97487.44;5064158;28;20603;-80
2023/09/18 20:05:24;;;;;;;6.27;3.30;;;;;;;21.29;63.37;97506.16;5065649;28;20325;-80
2023/09/18 20:07:52;;;;;;;5.27;3.30;;;;;;;20.93;64.33;97489.69;5063940;28;20211;-80
2023/09/18 20:10:21;;;;;;;8.13;4.60;;;;;;;21.14;64.03;97508.22;5065386;28;20213;-80
2023/09/18 20:12:50;;;;;;;4.50;3.67;;;;;;;21.05;63.93;97501.06;5063363;28;20254;-80
2023/09/18 20:15:19;;;;;;;3.63;3.17;;;;;;;21.01;64.08;97505.72;5064093;28;20196;-80
2023/09/18 20:17:46;;;;;;;7.67;3.73;;;;;;;20.81;64.92;97508.25;5063690;28;20241;-79
2023/09/18 20:20:15;;;;;;;4.43;3.50;;;;;;;20.55;66.02;97510.28;5062491;28;20205;-80
2023/09/18 20:22:42;;;;;;;5.23;3.50;;;;;;;20.35;66.43;97516.28;5063774;28;20208;-80
2023/09/18 20:25:12;;;;;;;9.23;4.33;;;;;;;20.34;66.67;97508.50;5062554;28;20199;-79
2023/09/18 20:27:43;;;;;;;7.57;4.30;;;;;;;20.66;66.01;97510.31;5062628;28;20206;-79
2023/09/18 20:30:14;;;;;;;5.83;3.60;;;;;;;20.40;66.52;97503.63;5050874;28;20275;-80
2023/09/18 20:32:44;;;;;;;8.40;4.97;;;;;;;20.15;67.86;97506.41;5051226;28;20240;-82
2023/09/18 20:35:14;;;;;;;5.90;4.13;;;;;;;20.19;67.19;97499.97;5070749;28;20297;-78
2023/09/18 20:37:42;;;;;;;6.83;4.07;;;;;;;20.32;66.87;97515.69;5056318;28;20227;-79
2023/09/18 20:40:09;;;;;;;5.93;3.73;;;;;;;20.19;67.76;97513.13;5052849;28;20689;-79
2023/09/18 20:42:39;;;;;;;7.13;3.63;;;;;;;19.65;67.94;97468.19;5050638;28;20208;-80
2023/09/18 20:45:13;;;;;;;4.97;3.70;;;;;;;19.88;68.25;97495.38;5049387;28;20277;-80
2023/09/18 20:47:52;;;;;;;5.97;3.53;;;;;;;19.89;68.14;97497.03;5036139;28;20204;-82
2023/09/18 20:50:20;;;;;;;4.73;3.83;;;;;;;19.96;67.75;97509.63;5053360;28;20197;-81
2023/09/18 20:52:50;;;;;;;11.83;3.80;;;;;;;20.14;67.71;97507.38;5055105;28;20199;-80
2023/09/18 20:55:18;;;;;;;4.90;3.60;;;;;;;19.91;68.20;97489.84;5052834;28;20264;-80
2023/09/18 20:57:46;;;;;;;6.40;3.70;;;;;;;19.79;67.79;97480.28;5051541;28;20225;-80
2023/09/18 21:00:13;;;;;;;6.83;3.97;;;;;;;19.70;67.93;97467.84;5048898;28;20644;-80
2023/09/18 21:02:44;;;;;;;4.73;3.60;;;;;;;20.03;67.23;97470.56;5051540;28;20197;-80
2023/09/18 21:05:16;;;;;;;5.40;3.40;;;;;;;20.24;66.89;97514.47;5034102;28;20233;-80
2023/09/18 21:07:50;;;;;;;6.37;4.07;;;;;;;19.94;67.90;97514.16;5050117;28;20182;-81
2023/09/18 21:10:19;;;;;;;5.97;4.00;;;;;;;19.72;68.67;97508.81;5051997;28;20197;-80
2023/09/18 21:12:46;;;;;;;5.60;3.77;;;;;;;19.65;68.95;97502.34;5048269;28;20198;-80
2023/09/18 21:15:14;;;;;;;4.87;3.97;;;;;;;19.69;68.87;97505.59;5050058;28;20677;-79
2023/09/18 21:17:41;;;;;;;7.27;4.10;;;;;;;19.73;68.46;97507.03;5048013;28;20828;-79
2023/09/18 21:20:09;;;;;;;4.80;3.43;;;;;;;19.34;69.42;97488.03;5048997;28;20250;-79
2023/09/18 21:22:38;;;;;;;4.23;3.30;;;;;;;19.34;69.40;97505.56;5049002;28;20201;-80
2023/09/18 21:25:11;;;;;;;5.30;4.03;;;;;;;19.38;70.27;97513.13;5048636;28;20273;-79
2023/09/18 21:27:38;;;;;;;6.80;4.23;;;;;;;19.37;70.21;97505.34;5049722;28;20209;-80
2023/09/18 21:30:07;;;;;;;4.30;3.37;;;;;;;19.49;69.42;97489.50;5047771;28;20912;-79
2023/09/18 21:33:14;;;;;;;8.43;3.63;;;;;;;19.79;68.83;97509.19;5049345;28;20255;-80
2023/09/18 21:35:55;;;;;;;6.37;4.03;;;;;;;19.75;68.26;97489.34;5047372;28;20622;-80
2023/09/18 21:38:22;;;;;;;4.63;3.83;;;;;;;20.01;67.85;97504.00;5047656;28;20229;-81
2023/09/18 21:40:49;;;;;;;6.30;4.13;;;;;;;19.95;67.84;97499.19;5048318;28;20222;-79
2023/09/18 21:43:16;;;;;;;4.67;3.10;;;;;;;19.06;70.18;97496.19;5047638;28;20684;-79
2023/09/18 21:45:43;;;;;;;7.00;3.90;;;;;;;19.48;69.58;97494.88;5049418;28;20284;-79
2023/09/18 21:48:10;;;;;;;6.00;3.70;;;;;;;19.49;68.67;97465.84;5047824;28;20582;-79
2023/09/18 21:50:37;;;;;;;4.20;3.60;;;;;;;19.78;68.37;97504.91;5048582;28;20375;-79
2023/09/18 21:53:06;;;;;;;4.30;3.23;;;;;;;19.85;68.33;97496.44;5049497;28;21018;-80
2023/09/18 21:55:33;;;;;;;5.37;3.70;;;;;;;19.99;67.35;97504.09;5047832;28;20200;-80
2023/09/18 21:58:03;;;;;;;5.57;3.87;;;;;;;19.95;67.67;97496.56;5048668;28;20286;-80
2023/09/18 22:00:30;;;;;;;6.07;3.43;;;;;;;19.86;67.54;97492.03;5047408;28;20216;-80
2023/09/18 22:02:57;;;;;;;6.43;4.07;;;;;;;19.78;68.09;97504.91;5048901;28;20658;-81
2023/09/18 22:05:24;;;;;;;4.73;3.43;;;;;;;19.70;67.53;97484.44;5047430;28;20621;-80
2023/09/18 22:07:51;;;;;;;4.17;3.33;;;;;;;19.58;68.44;97503.75;5048705;28;20194;-79
2023/09/18 22:10:18;;;;;;;7.10;3.77;;;;;;;19.57;68.88;97494.22;5048658;28;20255;-80
2023/09/18 22:12:45;;;;;;;5.50;3.67;;;;;;;19.56;68.65;97489.06;5047449;28;20832;-80
2023/09/18 22:15:13;;;;;;;6.13;3.97;;;;;;;19.58;68.16;97482.72;5048367;28;20216;-80
2023/09/18 22:17:41;;;;;;;5.00;3.53;;;;;;;19.75;68.11;97499.88;5046875;28;20255;-79
2023/09/18 22:20:12;;;;;;;6.53;3.83;;;;;;;19.68;67.95;97498.66;5048323;28;20197;-79
2023/09/18 22:22:39;;;;;;;4.83;3.43;;;;;;;19.47;67.97;97453.81;5046933;28;20206;-78
2023/09/18 22:25:06;;;;;;;6.17;3.50;;;;;;;19.68;68.36;97501.28;5048330;28;20581;-79
2023/09/18 22:27:33;;;;;;;5.33;3.63;;;;;;;19.44;68.97;97499.53;5048957;28;20205;-79
2023/09/18 22:30:01;;;;;;;6.33;3.70;;;;;;;19.21;69.66;97484.56;5047465;28;20201;-79
2023/09/18 22:32:29;;;;;;;5.73;3.50;;;;;;;19.32;68.90;97478.53;5048027;28;20209;-78
2023/09/18 22:34:56;;;;;;;5.07;3.50;;;;;;;19.41;68.25;97488.41;5046978;28;20204;-80
2023/09/18 22:37:23;;;;;;;4.23;3.70;;;;;;;19.53;68.42;97490.13;5047953;28;20235;-80
2023/09/18 22:40:11;;;;;;;7.87;4.33;;;;;;;19.36;68.50;97488.75;5047028;28;20201;-81
2023/09/18 22:43:17;;;;;;;7.40;3.70;;;;;;;19.29;68.94;97487.47;5047632;28;20214;-78
2023/09/18 22:46:22;;;;;;;8.07;3.60;;;;;;;19.46;68.48;97488.91;5048002;28;20290;-79
2023/09/18 22:49:27;;;;;;;6.50;3.30;;;;;;;19.57;68.07;97488.94;5047139;28;20207;-79
2023/09/18 22:52:31;;;;;;;3.67;3.13;;;;;;;19.14;69.26;97479.91;5044882;28;20292;-79
2023/09/18 22:54:59;;;;;;;5.27;4.00;;;;;;;18.83;70.53;97483.06;5047680;28;20200;-79
2023/09/18 22:57:29;;;;;;;4.77;4.00;;;;;;;18.18;72.33;97453.56;5046736;28;20240;-80
2023/09/18 22:59:58;;;;;;;6.00;4.43;;;;;;;18.21;73.01;97479.56;5047327;28;20297;-80
2023/09/18 23:02:27;;;;;;;9.13;3.57;;;;;;;18.32;72.85;97483.13;5047679;28;20297;-81
2023/09/18 23:04:55;;;;;;;6.50;3.53;;;;;;;18.66;71.48;97473.75;5046557;28;20243;-80
2023/09/18 23:07:25;;;;;;;6.80;3.63;;;;;;;18.64;71.01;97450.25;5047897;28;20757;-81
2023/09/18 23:09:53;;;;;;;4.70;4.13;;;;;;;18.78;70.59;97465.00;5046241;28;20191;-80
2023/09/18 23:12:20;;;;;;;6.60;4.40;;;;;;;18.86;70.07;97467.91;5047693;28;20651;-80
2023/09/18 23:14:49;;;;;;;8.73;4.80;;;;;;;18.78;70.77;97472.03;5046678;28;20204;-79
2023/09/18 23:17:16;;;;;;;9.10;4.43;;;;;;;18.73;70.48;97464.53;5046753;28;20239;-78
2023/09/18 23:19:45;;;;;;;8.23;4.73;;;;;;;18.64;70.51;97462.53;5047344;28;20586;-78
2023/09/18 23:22:12;;;;;;;6.40;4.63;;;;;;;18.41;70.60;97445.78;5046262;28;20838;-79
2023/09/18 23:24:39;;;;;;;5.50;4.20;;;;;;;18.32;71.63;97467.38;5047730;28;20202;-77
2023/09/18 23:27:06;;;;;;;7.60;4.50;;;;;;;18.45;71.34;97463.00;5046051;28;20578;-77
2023/09/18 23:29:32;;;;;;;6.40;4.57;;;;;;;18.22;71.74;97471.59;5048017;28;20219;-80
2023/09/18 23:32:00;;;;;;;6.50;4.50;;;;;;;17.87;72.26;97429.47;5046930;28;20189;-81
2023/09/18 23:34:27;;;;;;;5.80;4.40;;;;;;;18.15;72.53;97465.13;5047615;28;20555;-80
2023/09/18 23:36:57;;;;;;;6.93;4.80;;;;;;;17.95;72.43;97456.94;5047516;28;20205;-80
2023/09/18 23:39:24;;;;;;;7.57;4.90;;;;;;;17.83;72.75;97435.03;5046630;28;20285;-81
2023/09/18 23:41:51;;;;;;;6.13;4.60;;;;;;;17.84;72.95;97442.81;5029884;28;20199;-81
2023/09/18 23:44:21;;;;;;;5.53;4.30;;;;;;;17.82;72.19;97434.19;5046029;28;20191;-81
2023/09/18 23:46:51;;;;;;;7.67;4.80;;;;;;;18.13;72.10;97460.91;5047531;28;20210;-80
2023/09/18 23:49:19;;;;;;;6.90;4.13;;;;;;;17.95;72.18;97455.13;5046754;28;20690;-81
2023/09/18 23:51:46;;;;;;;14.83;4.70;;;;;;;18.06;71.87;97459.66;5047181;28;20379;-81
2023/09/18 23:54:14;;;;;;;7.33;4.97;;;;;;;17.89;72.07;97434.59;5047518;28;20569;-82
2023/09/18 23:56:43;;;;;;;8.10;5.00;;;;;;;17.92;71.57;97437.03;5046269;28;20180;-82
2023/09/18 23:59:13;;;;;;;7.63;5.00;;;;;;;18.05;71.25;97453.59;5047099;28;20239;-81
